createdAt,value
2022-08-14T00:00:08.203Z,16.6
2022-08-14T00:01:24.509Z,16.7
2022-08-14T00:02:40.803Z,17.1
2022-08-14T00:03:57.092Z,17.8
2022-08-14T00:05:13.386Z,19.4
2022-08-14T00:06:29.681Z,17.9
2022-08-14T00:07:45.978Z,16.7
2022-08-14T00:09:02.260Z,17.6
2022-08-14T00:10:18.557Z,17.7
2022-08-14T00:11:34.866Z,19.3
2022-08-14T00:12:51.148Z,18.9
2022-08-14T00:14:07.456Z,17.3
2022-08-14T00:15:22.751Z,19.6
2022-08-14T00:16:39.058Z,18.9
2022-08-14T00:17:55.348Z,18.1
2022-08-14T00:19:11.000Z,17.6
2022-08-14T00:20:27.942Z,18.1
2022-08-14T00:21:44.219Z,18.2
2022-08-14T00:23:00.529Z,16.8
2022-08-14T00:24:16.813Z,17.3
2022-08-14T00:25:33.104Z,18
2022-08-14T00:26:49.395Z,18.8
2022-08-14T00:28:05.703Z,16.7
2022-08-14T00:30:38.281Z,18.5
2022-08-14T00:31:53.588Z,17.6
2022-08-14T00:33:09.898Z,17.6
2022-08-14T00:34:26.177Z,19.2
2022-08-14T00:35:42.487Z,17
2022-08-14T00:36:58.775Z,16.6
2022-08-14T00:38:15.056Z,18.2
2022-08-14T00:39:31.358Z,19.2
2022-08-14T00:40:47.660Z,18.2
2022-08-14T00:42:03.937Z,18.2
2022-08-14T00:43:20.237Z,18.5
2022-08-14T00:44:36.543Z,17
2022-08-14T00:45:52.827Z,18.1
2022-08-14T00:47:09.128Z,18.6
2022-08-14T00:48:24.442Z,20.4
2022-08-14T00:49:40.720Z,18.3
2022-08-14T00:50:57.019Z,18.1
2022-08-14T00:53:29.613Z,18.3
2022-08-14T00:54:45.904Z,18.1
2022-08-14T00:56:02.201Z,18.1
2022-08-14T00:57:18.486Z,20
2022-08-14T00:58:34.793Z,20.2
2022-08-14T01:01:07.376Z,19.4
2022-08-14T01:02:23.667Z,20.1
2022-08-14T01:03:39.968Z,19.8
2022-08-14T01:06:11.567Z,21
2022-08-14T01:07:26.884Z,20.3
2022-08-14T01:08:42.208Z,20.8
2022-08-14T01:09:58.488Z,20.7
2022-08-14T01:11:14.784Z,20.4
2022-08-14T01:12:31.084Z,24.2
2022-08-14T01:13:47.386Z,24.9
2022-08-14T01:16:19.970Z,28.7
2022-08-14T01:17:36.259Z,22.4
2022-08-14T01:18:52.561Z,25
2022-08-14T01:20:08.850Z,24.4
2022-08-14T01:21:25.136Z,25
2022-08-14T01:22:41.430Z,24.6
2022-08-14T01:23:57.731Z,25.4
2022-08-14T01:25:13.037Z,25.7
2022-08-14T01:26:29.332Z,27
2022-08-14T01:27:45.631Z,24.7
2022-08-14T01:29:01.930Z,33.1
2022-08-14T01:30:18.228Z,26.2
2022-08-14T01:31:34.517Z,27.3
2022-08-14T01:32:50.816Z,28.6
2022-08-14T01:34:07.107Z,47.8
2022-08-14T01:35:22.410Z,76.1
2022-08-14T01:36:37.721Z,30.1
2022-08-14T01:37:54.019Z,31.8
2022-08-14T01:39:10.308Z,31.7
2022-08-14T01:40:26.606Z,30.1
2022-08-14T01:41:42.906Z,29.1
2022-08-14T01:42:59.184Z,29.5
2022-08-14T01:44:15.497Z,27.6
2022-08-14T01:46:48.078Z,30
2022-08-14T01:48:04.369Z,28.2
2022-08-14T01:49:20.669Z,29.3
2022-08-14T01:50:36.948Z,27.6
2022-08-14T01:51:53.258Z,27.8
2022-08-14T01:54:24.855Z,26.8
2022-08-14T01:55:40.174Z,25.8
2022-08-14T01:56:55.485Z,25.3
2022-08-14T01:58:11.775Z,23.5
2022-08-14T01:59:28.071Z,21.6
2022-08-14T02:00:44.361Z,25.5
2022-08-14T02:02:00.657Z,27.3
2022-08-14T02:03:16.959Z,25.8
2022-08-14T02:04:33.242Z,25.1
2022-08-14T02:05:49.532Z,25.1
2022-08-14T02:07:05.835Z,24.3
2022-08-14T02:08:22.132Z,24.8
2022-08-14T02:09:37.448Z,25.8
2022-08-14T02:10:52.765Z,24.7
2022-08-14T02:12:09.051Z,26
2022-08-14T02:13:25.349Z,25.8
2022-08-14T02:14:41.635Z,26.8
2022-08-14T02:17:14.218Z,26.6
2022-08-14T02:18:30.517Z,26.8
2022-08-14T02:19:46.807Z,27
2022-08-14T02:21:03.099Z,27.1
2022-08-14T02:22:19.392Z,25.8
2022-08-14T02:24:51.986Z,27.9
2022-08-14T02:26:07.299Z,28.6
2022-08-14T02:27:22.619Z,26.7
2022-08-14T02:28:38.919Z,28.1
2022-08-14T02:29:55.202Z,28.6
2022-08-14T02:31:11.497Z,25.2
2022-08-14T02:32:27.783Z,25.6
2022-08-14T02:33:44.080Z,27.2
2022-08-14T02:35:00.381Z,25.4
2022-08-14T02:36:16.665Z,26
2022-08-14T02:37:32.000Z,25.3
2022-08-14T02:38:49.262Z,25.1
2022-08-14T02:40:04.576Z,25
2022-08-14T02:41:19.877Z,24.7
2022-08-14T02:42:36.172Z,25.3
2022-08-14T02:43:52.484Z,26.5
2022-08-14T02:45:08.761Z,26.9
2022-08-14T02:46:25.070Z,26.8
2022-08-14T02:47:41.365Z,29.8
2022-08-14T02:48:57.655Z,28.3
2022-08-14T02:50:13.952Z,26.9
2022-08-14T02:51:30.238Z,26.3
2022-08-14T02:52:46.522Z,26.9
2022-08-14T02:54:02.830Z,26.2
2022-08-14T02:55:19.123Z,26.9
2022-08-14T02:56:35.419Z,26.4
2022-08-14T02:57:50.721Z,25.9
2022-08-14T02:59:07.015Z,25.7
2022-08-14T03:00:23.321Z,27.5
2022-08-14T03:01:39.606Z,25.3
2022-08-14T03:02:55.894Z,26.1
2022-08-14T03:04:12.186Z,26.4
2022-08-14T03:05:28.490Z,26.2
2022-08-14T03:06:44.793Z,27.3
2022-08-14T03:08:01.071Z,28
2022-08-14T03:09:17.377Z,27.7
2022-08-14T03:10:33.665Z,26.7
2022-08-14T03:11:49.959Z,24.8
2022-08-14T03:13:06.250Z,25.1
2022-08-14T03:14:21.505Z,24.8
2022-08-14T03:15:37.795Z,25.1
2022-08-14T03:16:54.109Z,24.6
2022-08-14T03:18:10.350Z,24.1
2022-08-14T03:19:26.600Z,26.1
2022-08-14T03:20:42.826Z,22.9
2022-08-14T03:21:59.070Z,24.6
2022-08-14T03:23:15.328Z,23.7
2022-08-14T03:24:31.553Z,24.8
2022-08-14T03:25:47.797Z,23
2022-08-14T03:27:04.051Z,23.3
2022-08-14T03:28:20.272Z,23.7
2022-08-14T03:29:36.525Z,22.9
2022-08-14T03:30:51.779Z,26.1
2022-08-14T03:32:08.019Z,24.3
2022-08-14T03:33:24.258Z,25.6
2022-08-14T03:34:40.499Z,23.6
2022-08-14T03:35:56.742Z,22.9
2022-08-14T03:37:12.984Z,23.5
2022-08-14T03:38:29.223Z,24.8
2022-08-14T03:39:45.454Z,25
2022-08-14T03:41:01.707Z,24.8
2022-08-14T03:42:17.942Z,25
2022-08-14T03:43:34.180Z,24.2
2022-08-14T03:44:50.428Z,26.6
2022-08-14T03:46:06.666Z,24.3
2022-08-14T03:47:21.918Z,25.4
2022-08-14T03:48:38.150Z,24.9
2022-08-14T03:49:54.389Z,24.4
2022-08-14T03:51:10.645Z,25.4
2022-08-14T03:52:26.875Z,24.5
2022-08-14T03:53:43.126Z,24.6
2022-08-14T03:54:59.362Z,23.8
2022-08-14T03:56:15.599Z,24.7
2022-08-14T03:57:31.839Z,24.5
2022-08-14T03:58:48.081Z,25.3
2022-08-14T04:00:04.315Z,25.4
2022-08-14T04:01:20.554Z,24
2022-08-14T04:02:36.802Z,22.9
2022-08-14T04:03:52.044Z,24.1
2022-08-14T04:05:08.302Z,24.2
2022-08-14T04:06:24.539Z,24.7
2022-08-14T04:07:40.765Z,25
2022-08-14T04:08:57.018Z,25.1
2022-08-14T04:10:13.252Z,25.7
2022-08-14T04:11:29.490Z,25.7
2022-08-14T04:12:45.740Z,27.2
2022-08-14T04:14:01.965Z,23.8
2022-08-14T04:15:18.213Z,24.1
2022-08-14T04:16:34.443Z,26.9
2022-08-14T04:19:06.929Z,24.1
2022-08-14T04:20:22.195Z,24.6
2022-08-14T04:21:38.435Z,23.4
2022-08-14T04:22:54.673Z,24.4
2022-08-14T04:24:10.910Z,22.6
2022-08-14T04:25:27.152Z,24.9
2022-08-14T04:26:43.392Z,23.7
2022-08-14T04:27:59.636Z,24.2
2022-08-14T04:29:15.880Z,22.5
2022-08-14T04:30:32.120Z,24.4
2022-08-14T04:31:48.362Z,23.7
2022-08-14T04:33:04.590Z,23.6
2022-08-14T04:34:20.839Z,23.7
2022-08-14T04:35:37.075Z,23.9
2022-08-14T04:36:52.323Z,23.7
2022-08-14T04:38:08.578Z,24.1
2022-08-14T04:39:24.808Z,23.6
2022-08-14T04:41:57.288Z,22.9
2022-08-14T04:43:13.523Z,23.2
2022-08-14T04:44:29.770Z,24.4
2022-08-14T04:45:46.011Z,22.5
2022-08-14T04:47:02.259Z,21.8
2022-08-14T04:49:34.721Z,22.5
2022-08-14T04:50:50.973Z,23.6
2022-08-14T04:52:07.206Z,23.9
2022-08-14T04:53:22.460Z,24.3
2022-08-14T04:54:38.701Z,23.6
2022-08-14T04:55:54.938Z,23.8
2022-08-14T04:57:11.196Z,25.3
2022-08-14T04:58:27.428Z,23.2
2022-08-14T04:59:43.674Z,24.6
2022-08-14T05:00:59.907Z,22.9
2022-08-14T05:02:16.153Z,23.4
2022-08-14T05:03:32.393Z,23.7
2022-08-14T05:04:48.624Z,23.3
2022-08-14T05:06:04.858Z,23.2
2022-08-14T05:07:21.114Z,21.4
2022-08-14T05:08:37.342Z,22
2022-08-14T05:09:52.596Z,21
2022-08-14T05:12:25.083Z,22.5
2022-08-14T05:13:41.315Z,23.7
2022-08-14T05:14:57.553Z,23.6
2022-08-14T05:16:13.812Z,22.3
2022-08-14T05:17:30.052Z,21
2022-08-14T05:18:46.277Z,22.5
2022-08-14T05:20:02.516Z,22.3
2022-08-14T05:21:18.768Z,25.2
2022-08-14T05:22:34.025Z,23.1
2022-08-14T05:23:50.254Z,23.7
2022-08-14T05:25:06.496Z,22.7
2022-08-14T05:26:22.749Z,23
2022-08-14T05:27:38.991Z,23.5
2022-08-14T05:28:55.225Z,22
2022-08-14T05:30:11.456Z,21.5
2022-08-14T05:31:27.712Z,20.9
2022-08-14T05:32:43.938Z,22.4
2022-08-14T05:34:00.183Z,22.9
2022-08-14T05:35:16.433Z,22
2022-08-14T05:36:32.669Z,22.4
2022-08-14T05:37:48.904Z,21.7
2022-08-14T05:39:04.168Z,22.7
2022-08-14T05:40:20.409Z,22.2
2022-08-14T05:41:36.635Z,21.3
2022-08-14T05:42:52.883Z,21.1
2022-08-14T05:44:09.118Z,21.4
2022-08-14T05:45:25.357Z,22.1
2022-08-14T05:46:41.593Z,20.6
2022-08-14T05:47:57.835Z,22.2
2022-08-14T05:49:14.084Z,21.1
2022-08-14T05:50:30.331Z,20.9
2022-08-14T05:51:46.567Z,23.1
2022-08-14T05:53:02.792Z,22.2
2022-08-14T05:54:19.051Z,22.5
2022-08-14T05:55:34.298Z,22
2022-08-14T05:56:50.531Z,20.9
2022-08-14T05:58:06.781Z,21.5
2022-08-14T05:59:23.027Z,20.1
2022-08-14T06:00:39.261Z,20.6
2022-08-14T06:01:55.495Z,19.4
2022-08-14T06:03:11.728Z,21
2022-08-14T06:04:27.975Z,20.9
2022-08-14T06:05:44.224Z,21.5
2022-08-14T06:07:00.466Z,19.8
2022-08-14T06:08:16.702Z,19.9
2022-08-14T06:09:32.946Z,20.2
2022-08-14T06:10:49.170Z,21.4
2022-08-14T06:12:04.443Z,19
2022-08-14T06:13:20.685Z,19.3
2022-08-14T06:15:53.163Z,19
2022-08-14T06:17:09.403Z,19.1
2022-08-14T06:18:25.633Z,17.2
2022-08-14T06:19:41.885Z,17.3
2022-08-14T06:20:58.113Z,17.9
2022-08-14T06:22:14.346Z,17.8
2022-08-14T06:23:30.603Z,18.5
2022-08-14T06:24:46.829Z,17.7
2022-08-14T06:26:03.083Z,17.2
2022-08-14T06:27:19.320Z,18.7
2022-08-14T06:28:34.580Z,17
2022-08-14T06:29:50.806Z,17.3
2022-08-14T06:31:07.047Z,17.7
2022-08-14T06:32:23.290Z,18.4
2022-08-14T06:33:39.529Z,18.6
2022-08-14T06:34:55.762Z,17.4
2022-08-14T06:36:12.019Z,18.1
2022-08-14T06:37:28.260Z,19.3
2022-08-14T06:38:44.497Z,16.6
2022-08-14T06:40:00.723Z,17.2
2022-08-14T06:41:16.970Z,18.1
2022-08-14T06:42:33.213Z,17.5
2022-08-14T06:43:49.458Z,17.7
2022-08-14T06:45:04.717Z,18.1
2022-08-14T06:46:20.000Z,16.6
2022-08-14T06:47:37.196Z,17.4
2022-08-14T06:48:53.429Z,17.2
2022-08-14T06:51:25.912Z,17.2
2022-08-14T06:52:42.149Z,18.3
2022-08-14T06:53:58.396Z,16.4
2022-08-14T06:55:14.636Z,16.9
2022-08-14T06:56:30.872Z,15.6
2022-08-14T06:59:03.355Z,15.7
2022-08-14T07:00:19.582Z,14.9
2022-08-14T07:01:34.838Z,14.8
2022-08-14T07:02:51.082Z,16.1
2022-08-14T07:04:07.330Z,15
2022-08-14T07:06:39.802Z,15.5
2022-08-14T07:07:55.063Z,14.7
2022-08-14T07:09:10.320Z,15.5
2022-08-14T07:10:26.560Z,14.7
2022-08-14T07:11:42.793Z,14.2
2022-08-14T07:12:59.035Z,14.9
2022-08-14T07:14:15.277Z,16.3
2022-08-14T07:15:31.526Z,14.7
2022-08-14T07:16:47.768Z,15
2022-08-14T07:18:03.997Z,14.5
2022-08-14T07:19:20.244Z,14.6
2022-08-14T07:20:36.487Z,14.9
2022-08-14T07:21:51.745Z,13.7
2022-08-14T07:23:06.991Z,14.8
2022-08-14T07:24:23.239Z,14.6
2022-08-14T07:25:39.473Z,14.1
2022-08-14T07:26:55.714Z,14.7
2022-08-14T07:28:11.969Z,14.2
2022-08-14T07:29:28.209Z,15.3
2022-08-14T07:30:44.442Z,14.4
2022-08-14T07:32:00.692Z,14.6
2022-08-14T07:33:16.914Z,13.6
2022-08-14T07:34:33.166Z,14.1
2022-08-14T07:37:05.636Z,14
2022-08-14T07:38:21.889Z,13.5
2022-08-14T07:39:37.136Z,13.9
2022-08-14T07:40:53.380Z,13.3
2022-08-14T07:42:09.623Z,12.5
2022-08-14T07:43:25.849Z,12.9
2022-08-14T07:44:42.104Z,13.7
2022-08-14T07:45:58.330Z,13.4
2022-08-14T07:47:14.588Z,14.9
2022-08-14T07:48:30.819Z,12.7
2022-08-14T07:49:47.054Z,12.8
2022-08-14T07:51:03.303Z,13.4
2022-08-14T07:52:19.539Z,13.7
2022-08-14T07:53:35.774Z,13
2022-08-14T07:54:52.014Z,13.3
2022-08-14T07:56:07.279Z,14.1
2022-08-14T07:57:23.518Z,14.3
2022-08-14T07:58:39.764Z,13.8
2022-08-14T07:59:56.000Z,13.6
2022-08-14T08:01:12.242Z,13.4
2022-08-14T08:02:28.468Z,13.4
2022-08-14T08:03:44.706Z,14.6
2022-08-14T08:05:00.957Z,15.1
2022-08-14T08:06:17.202Z,14.9
2022-08-14T08:07:33.435Z,13.3
2022-08-14T08:08:49.682Z,14.3
2022-08-14T08:10:05.906Z,13.8
2022-08-14T08:11:22.157Z,14.4
2022-08-14T08:12:37.412Z,15
2022-08-14T08:13:53.659Z,13.2
2022-08-14T08:15:09.884Z,14.1
2022-08-14T08:16:26.127Z,15
2022-08-14T08:17:42.370Z,13.9
2022-08-14T08:18:58.610Z,14.2
2022-08-14T08:20:14.851Z,14.3
2022-08-14T08:21:31.083Z,14.3
2022-08-14T08:22:47.342Z,15.8
2022-08-14T08:24:03.584Z,14.8
2022-08-14T08:25:19.808Z,14.9
2022-08-14T08:26:36.047Z,14.7
2022-08-14T08:27:52.285Z,16
2022-08-14T08:29:07.550Z,14.9
2022-08-14T08:30:23.782Z,14.5
2022-08-14T08:31:40.030Z,13.9
2022-08-14T08:32:56.262Z,14.7
2022-08-14T08:34:12.506Z,14.7
2022-08-14T08:35:28.742Z,14
2022-08-14T08:36:44.978Z,13.9
2022-08-14T08:38:01.215Z,14
2022-08-14T08:39:17.461Z,14.2
2022-08-14T08:40:33.703Z,13.7
2022-08-14T08:41:49.940Z,15.6
2022-08-14T08:43:06.164Z,13.4
2022-08-14T08:45:38.662Z,14.5
2022-08-14T08:46:53.906Z,12.5
2022-08-14T08:48:10.158Z,13.4
2022-08-14T08:49:26.396Z,14.2
2022-08-14T08:50:42.634Z,13.7
2022-08-14T08:53:15.107Z,12.6
2022-08-14T08:54:31.354Z,12.1
2022-08-14T08:55:47.579Z,12
2022-08-14T08:57:03.833Z,12
2022-08-14T08:58:20.074Z,11.5
2022-08-14T08:59:36.317Z,12.2
2022-08-14T09:00:52.556Z,11.3
2022-08-14T09:02:08.797Z,11.9
2022-08-14T09:03:24.053Z,13
2022-08-14T09:04:40.288Z,11.7
2022-08-14T09:05:56.516Z,10.9
2022-08-14T09:07:12.776Z,11.6
2022-08-14T09:08:29.012Z,11.9
2022-08-14T09:09:45.241Z,13
2022-08-14T09:11:01.480Z,13
2022-08-14T09:12:17.738Z,11.5
2022-08-14T09:13:33.967Z,12.1
2022-08-14T09:16:06.442Z,10.9
2022-08-14T09:17:22.690Z,11.8
2022-08-14T09:18:38.924Z,11.3
2022-08-14T09:19:54.189Z,11.2
2022-08-14T09:21:10.416Z,12.1
2022-08-14T09:22:26.667Z,11.9
2022-08-14T09:23:42.901Z,11.8
2022-08-14T09:24:59.151Z,12.2
2022-08-14T09:26:15.396Z,12.5
2022-08-14T09:27:31.627Z,12.7
2022-08-14T09:28:47.868Z,11.8
2022-08-14T09:30:04.111Z,11.5
2022-08-14T09:31:20.345Z,11.5
2022-08-14T09:32:36.593Z,11.8
2022-08-14T09:33:52.817Z,11
2022-08-14T09:35:09.060Z,11.6
2022-08-14T09:36:24.331Z,11.1
2022-08-14T09:38:55.826Z,10.9
2022-08-14T09:40:11.095Z,10.9
2022-08-14T09:41:27.321Z,11.7
2022-08-14T09:42:43.557Z,10.7
2022-08-14T09:43:59.808Z,11.6
2022-08-14T09:45:16.042Z,10.8
2022-08-14T09:46:32.283Z,11.4
2022-08-14T09:49:04.762Z,11.6
2022-08-14T09:50:21.018Z,12.5
2022-08-14T09:51:37.244Z,11.8
2022-08-14T09:52:53.480Z,11.7
2022-08-14T09:54:09.736Z,11.3
2022-08-14T09:55:25.975Z,12.2
2022-08-14T09:56:41.217Z,11
2022-08-14T09:57:57.461Z,12.1
2022-08-14T09:59:13.708Z,11.1
2022-08-14T10:00:29.943Z,11.1
2022-08-14T10:01:46.187Z,11.8
2022-08-14T10:03:02.427Z,12.1
2022-08-14T10:04:18.671Z,13.1
2022-08-14T10:05:34.909Z,11
2022-08-14T10:06:51.136Z,11.4
2022-08-14T10:08:07.382Z,11.8
2022-08-14T10:09:23.634Z,11.3
2022-08-14T10:10:39.866Z,11.6
2022-08-14T10:11:56.111Z,10.6
2022-08-14T10:13:12.356Z,10
2022-08-14T10:14:27.602Z,10.4
2022-08-14T10:17:00.092Z,9.8
2022-08-14T10:18:16.332Z,10.5
2022-08-14T10:19:32.557Z,10.1
2022-08-14T10:20:48.804Z,10
2022-08-14T10:22:05.049Z,9.7
2022-08-14T10:23:21.287Z,10.2
2022-08-14T10:24:37.514Z,9.4
2022-08-14T10:27:10.011Z,10.1
2022-08-14T10:28:26.238Z,10.1
2022-08-14T10:29:42.477Z,9.2
2022-08-14T10:32:13.981Z,9.7
2022-08-14T10:33:29.235Z,9.2
2022-08-14T10:34:44.510Z,11
2022-08-14T10:36:00.744Z,10.3
2022-08-14T10:37:16.983Z,9.2
2022-08-14T10:38:33.214Z,9.4
2022-08-14T10:39:49.469Z,9
2022-08-14T10:41:05.708Z,9.2
2022-08-14T10:42:21.935Z,8.8
2022-08-14T10:43:38.189Z,9
2022-08-14T10:44:54.423Z,8.8
2022-08-14T10:47:26.909Z,9.7
2022-08-14T10:48:43.140Z,9.6
2022-08-14T10:49:59.379Z,8.5
2022-08-14T10:51:14.641Z,9.4
2022-08-14T10:52:30.878Z,9.5
2022-08-14T10:53:47.124Z,10.2
2022-08-14T10:55:03.371Z,11.3
2022-08-14T10:56:19.601Z,9.3
2022-08-14T10:57:35.849Z,10.5
2022-08-14T10:58:52.086Z,9.8
2022-08-14T11:00:08.325Z,9.5
2022-08-14T11:01:23.590Z,9.3
2022-08-14T11:02:39.819Z,10
2022-08-14T11:03:55.073Z,8.7
2022-08-14T11:05:11.330Z,9.2
2022-08-14T11:06:27.553Z,8.6
2022-08-14T11:07:43.800Z,8.9
2022-08-14T11:09:00.051Z,8.7
2022-08-14T11:10:16.283Z,10.3
2022-08-14T11:11:32.517Z,8.7
2022-08-14T11:12:48.775Z,10.8
2022-08-14T11:14:05.008Z,9
2022-08-14T11:15:21.248Z,8.5
2022-08-14T11:16:37.475Z,8.3
2022-08-14T11:17:53.717Z,8.3
2022-08-14T11:19:09.971Z,8.6
2022-08-14T11:20:25.218Z,9.8
2022-08-14T11:21:41.453Z,8.9
2022-08-14T11:22:57.703Z,9.4
2022-08-14T11:24:13.943Z,9.4
2022-08-14T11:25:30.193Z,8.4
2022-08-14T11:26:46.430Z,8.3
2022-08-14T11:28:02.675Z,9.1
2022-08-14T11:29:18.912Z,9.3
2022-08-14T11:30:35.145Z,9.1
2022-08-14T11:31:51.385Z,9.1
2022-08-14T11:33:07.628Z,8.9
2022-08-14T11:34:23.859Z,8
2022-08-14T11:35:40.114Z,8.5
2022-08-14T11:36:56.341Z,9.6
2022-08-14T11:38:11.604Z,9.3
2022-08-14T11:40:44.086Z,8.7
2022-08-14T11:42:00.335Z,8.6
2022-08-14T11:43:16.558Z,9.6
2022-08-14T11:44:32.799Z,8.7
2022-08-14T11:45:49.057Z,8.9
2022-08-14T11:47:05.297Z,9.2
2022-08-14T11:48:21.521Z,9
2022-08-14T11:50:54.003Z,8
2022-08-14T11:52:10.246Z,7.7
2022-08-14T11:53:26.494Z,9.1
2022-08-14T11:54:41.739Z,10.5
2022-08-14T11:55:57.997Z,9.2
2022-08-14T11:57:14.238Z,8.7
2022-08-14T11:58:30.476Z,8.5
2022-08-14T11:59:46.717Z,8.5
2022-08-14T12:01:02.000Z,9.8
2022-08-14T12:02:19.188Z,8.8
2022-08-14T12:03:35.430Z,8.4
2022-08-14T12:04:51.664Z,9
2022-08-14T12:06:07.921Z,9.5
2022-08-14T12:07:24.149Z,8.5
2022-08-14T12:08:40.395Z,8.4
2022-08-14T12:09:56.634Z,8.1
2022-08-14T12:11:11.897Z,8.1
2022-08-14T12:12:28.128Z,8.5
2022-08-14T12:13:44.364Z,8.9
2022-08-14T12:15:00.613Z,9.6
2022-08-14T12:16:16.855Z,9.7
2022-08-14T12:17:33.100Z,8.6
2022-08-14T12:18:49.342Z,7.6
2022-08-14T12:20:05.579Z,9.6
2022-08-14T12:21:21.823Z,9
2022-08-14T12:22:38.065Z,8.8
2022-08-14T12:23:54.301Z,8.1
2022-08-14T12:25:10.539Z,9.2
2022-08-14T12:26:26.773Z,8.5
2022-08-14T12:27:42.033Z,8.4
2022-08-14T12:28:58.280Z,9
2022-08-14T12:30:14.516Z,8.8
2022-08-14T12:31:30.746Z,8.6
2022-08-14T12:32:47.004Z,9
2022-08-14T12:34:03.231Z,9.1
2022-08-14T12:35:19.482Z,9
2022-08-14T12:36:35.707Z,9.3
2022-08-14T12:37:51.962Z,8.9
2022-08-14T12:39:08.202Z,8.6
2022-08-14T12:40:24.444Z,9
2022-08-14T12:41:40.678Z,9.7
2022-08-14T12:42:56.919Z,10
2022-08-14T12:44:12.173Z,10
2022-08-14T12:45:28.414Z,8.9
2022-08-14T12:46:44.651Z,8.7
2022-08-14T12:48:00.898Z,9.6
2022-08-14T12:49:17.148Z,8.6
2022-08-14T12:50:33.382Z,8.5
2022-08-14T12:51:49.629Z,8.9
2022-08-14T12:53:05.867Z,8.6
2022-08-14T12:54:22.107Z,9.1
2022-08-14T12:55:38.348Z,8.7
2022-08-14T12:56:54.577Z,8.6
2022-08-14T12:58:10.829Z,9.6
2022-08-14T12:59:27.062Z,8.5
2022-08-14T13:00:42.327Z,9.2
2022-08-14T13:01:58.555Z,9.6
2022-08-14T13:03:14.792Z,10.2
2022-08-14T13:04:31.033Z,9.2
2022-08-14T13:05:47.279Z,9
2022-08-14T13:07:03.520Z,8.4
2022-08-14T13:08:19.764Z,9.1
2022-08-14T13:09:36.004Z,8.5
2022-08-14T13:10:52.245Z,8.1
2022-08-14T13:12:08.478Z,8.6
2022-08-14T13:13:24.732Z,8.1
2022-08-14T13:14:40.970Z,8.5
2022-08-14T13:15:57.206Z,8.8
2022-08-14T13:17:12.472Z,8
2022-08-14T13:18:28.710Z,9.1
2022-08-14T13:19:44.936Z,8.4
2022-08-14T13:21:01.179Z,8.2
2022-08-14T13:22:17.418Z,8.1
2022-08-14T13:23:33.663Z,8.9
2022-08-14T13:24:49.905Z,7.8
2022-08-14T13:26:06.143Z,9.4
2022-08-14T13:27:22.382Z,8.7
2022-08-14T13:28:38.628Z,8.9
2022-08-14T13:29:54.873Z,9.1
2022-08-14T13:31:11.109Z,8.7
2022-08-14T13:32:27.346Z,8.8
2022-08-14T13:33:42.598Z,8.2
2022-08-14T13:34:58.857Z,9.7
2022-08-14T13:36:15.088Z,8.2
2022-08-14T13:37:31.333Z,8.6
2022-08-14T13:38:47.580Z,8.2
2022-08-14T13:40:03.804Z,8.2
2022-08-14T13:42:36.296Z,9.4
2022-08-14T13:45:08.773Z,9.4
2022-08-14T13:46:25.020Z,8
2022-08-14T13:47:41.262Z,8.1
2022-08-14T13:48:57.495Z,9.4
2022-08-14T13:50:12.749Z,8
2022-08-14T13:51:28.989Z,8.7
2022-08-14T13:52:45.242Z,9.1
2022-08-14T13:54:01.471Z,8.5
2022-08-14T13:55:16.739Z,8.8
2022-08-14T13:56:32.984Z,8.5
2022-08-14T13:57:49.227Z,9
2022-08-14T13:59:05.466Z,8.4
2022-08-14T14:00:21.689Z,9.4
2022-08-14T14:01:37.945Z,8.6
2022-08-14T14:02:54.176Z,8.2
2022-08-14T14:04:10.422Z,8.6
2022-08-14T14:05:26.672Z,9.7
2022-08-14T14:06:42.893Z,10.1
2022-08-14T14:07:59.135Z,8.4
2022-08-14T14:09:15.376Z,8.7
2022-08-14T14:10:31.631Z,8.1
2022-08-14T14:11:46.888Z,8.9
2022-08-14T14:13:03.118Z,9.1
2022-08-14T14:14:19.361Z,9.1
2022-08-14T14:15:35.604Z,8.6
2022-08-14T14:16:51.836Z,8.4
2022-08-14T14:18:08.082Z,9
2022-08-14T14:19:24.320Z,8.6
2022-08-14T14:20:40.558Z,8.5
2022-08-14T14:21:56.817Z,10.5
2022-08-14T14:23:13.042Z,9
2022-08-14T14:24:29.280Z,9.2
2022-08-14T14:25:45.529Z,8.2
2022-08-14T14:27:01.769Z,8.2
2022-08-14T14:28:17.000Z,9.1
2022-08-14T14:29:33.272Z,8.1
2022-08-14T14:30:49.506Z,9.1
2022-08-14T14:32:05.752Z,9.2
2022-08-14T14:33:21.984Z,8.6
2022-08-14T14:34:38.237Z,8.7
2022-08-14T14:35:54.469Z,8.4
2022-08-14T14:37:10.719Z,9.7
2022-08-14T14:38:26.951Z,9.5
2022-08-14T14:39:43.186Z,8.3
2022-08-14T14:40:59.430Z,8.8
2022-08-14T14:42:15.683Z,9
2022-08-14T14:43:31.926Z,8.7
2022-08-14T14:44:47.170Z,9
2022-08-14T14:46:03.409Z,8.4
2022-08-14T14:47:19.647Z,8.3
2022-08-14T14:48:35.900Z,7.8
2022-08-14T14:49:52.147Z,8.7
2022-08-14T14:51:08.380Z,7.9
2022-08-14T14:52:24.629Z,8.3
2022-08-14T14:53:40.852Z,8.3
2022-08-14T14:54:57.108Z,8.5
2022-08-14T14:56:13.344Z,8.6
2022-08-14T14:57:29.590Z,9
2022-08-14T14:58:45.835Z,9.6
2022-08-14T15:00:02.058Z,9
2022-08-14T15:01:18.302Z,8.8
2022-08-14T15:02:33.570Z,8.7
2022-08-14T15:03:49.806Z,10.7
2022-08-14T15:05:06.044Z,8.7
2022-08-14T15:06:22.283Z,9.6
2022-08-14T15:08:54.774Z,9.7
2022-08-14T15:10:11.004Z,8.9
2022-08-14T15:12:43.498Z,9.1
2022-08-14T15:13:59.728Z,9.9
2022-08-14T15:15:15.968Z,8.7
2022-08-14T15:16:32.210Z,8.8
2022-08-14T15:17:48.465Z,9.8
2022-08-14T15:19:03.707Z,9.3
2022-08-14T15:20:19.963Z,10.1
2022-08-14T15:21:36.185Z,9.8
2022-08-14T15:24:08.673Z,8.5
2022-08-14T15:25:23.944Z,9.7
2022-08-14T15:26:39.199Z,8.8
2022-08-14T15:27:55.432Z,8.5
2022-08-14T15:29:11.690Z,9.6
2022-08-14T15:30:27.917Z,9.2
2022-08-14T15:31:44.154Z,9.7
2022-08-14T15:33:00.393Z,8.4
2022-08-14T15:34:16.641Z,8.9
2022-08-14T15:35:32.881Z,9.6
2022-08-14T15:36:49.122Z,8.3
2022-08-14T15:38:05.370Z,8.9
2022-08-14T15:39:20.638Z,8.3
2022-08-14T15:41:52.121Z,8.9
2022-08-14T15:43:08.364Z,9.3
2022-08-14T15:44:24.618Z,8.2
2022-08-14T15:45:40.843Z,9.8
2022-08-14T15:46:57.089Z,8.3
2022-08-14T15:48:13.340Z,8.9
2022-08-14T15:49:29.574Z,8.3
2022-08-14T15:50:45.823Z,8.8
2022-08-14T15:52:02.056Z,9.1
2022-08-14T15:53:18.305Z,9.5
2022-08-14T15:54:34.530Z,8.9
2022-08-14T15:55:50.774Z,8.4
2022-08-14T15:57:06.029Z,9
2022-08-14T15:58:22.275Z,8.4
2022-08-14T15:59:38.511Z,8.7
2022-08-14T16:00:54.756Z,9
2022-08-14T16:02:10.992Z,8.8
2022-08-14T16:03:27.245Z,10.2
2022-08-14T16:04:43.489Z,11.3
2022-08-14T16:05:59.717Z,9
2022-08-14T16:07:15.968Z,8.2
2022-08-14T16:08:32.203Z,10.3
2022-08-14T16:09:48.443Z,9.1
2022-08-14T16:11:04.679Z,9.7
2022-08-14T16:12:20.930Z,8.8
2022-08-14T16:14:52.412Z,9.5
2022-08-14T16:16:08.660Z,9.7
2022-08-14T16:17:24.912Z,8.3
2022-08-14T16:18:41.136Z,8.4
2022-08-14T16:19:57.395Z,9.3
2022-08-14T16:22:29.877Z,10.9
2022-08-14T16:23:46.115Z,10.4
2022-08-14T16:25:02.354Z,12.4
2022-08-14T16:26:18.585Z,8.5
2022-08-14T16:27:34.821Z,8.2
2022-08-14T16:30:07.308Z,9.7
2022-08-14T16:31:22.581Z,8.5
2022-08-14T16:32:38.810Z,9.4
2022-08-14T16:33:54.070Z,8.3
2022-08-14T16:35:10.322Z,10
2022-08-14T16:36:26.556Z,9.7
2022-08-14T16:37:42.802Z,10
2022-08-14T16:38:59.027Z,9.6
2022-08-14T16:40:15.288Z,8.8
2022-08-14T16:41:31.518Z,9.3
2022-08-14T16:42:47.757Z,9.4
2022-08-14T16:45:20.248Z,9.6
2022-08-14T16:46:36.488Z,8.5
2022-08-14T16:47:52.731Z,8.6
2022-08-14T16:49:08.962Z,8.8
2022-08-14T16:50:24.222Z,8.7
2022-08-14T16:51:40.462Z,10.3
2022-08-14T16:52:56.700Z,8.9
2022-08-14T16:54:12.954Z,9.4
2022-08-14T16:55:29.176Z,9.4
2022-08-14T16:56:45.429Z,9.9
2022-08-14T16:58:01.666Z,10.8
2022-08-14T16:59:16.925Z,9.5
2022-08-14T17:00:32.178Z,9.8
2022-08-14T17:01:48.425Z,10.8
2022-08-14T17:03:04.661Z,9.5
2022-08-14T17:04:20.898Z,10.2
2022-08-14T17:05:37.137Z,10.1
2022-08-14T17:06:53.387Z,9.6
2022-08-14T17:08:09.639Z,9.7
2022-08-14T17:10:42.120Z,9.6
2022-08-14T17:11:58.361Z,9.3
2022-08-14T17:13:14.590Z,9.7
2022-08-14T17:14:30.834Z,9.8
2022-08-14T17:15:47.077Z,10.3
2022-08-14T17:17:02.336Z,9.5
2022-08-14T17:18:18.564Z,9.3
2022-08-14T17:19:34.815Z,10
2022-08-14T17:20:51.045Z,11.5
2022-08-14T17:22:07.301Z,10.8
2022-08-14T17:23:23.543Z,9.5
2022-08-14T17:24:39.776Z,11.3
2022-08-14T17:25:56.006Z,9.9
2022-08-14T17:27:12.250Z,9
2022-08-14T17:28:28.506Z,10.2
2022-08-14T17:29:44.730Z,9.4
2022-08-14T17:31:00.985Z,10
2022-08-14T17:32:17.219Z,9.3
2022-08-14T17:33:32.485Z,9.7
2022-08-14T17:34:48.715Z,9.4
2022-08-14T17:36:04.952Z,9.3
2022-08-14T17:37:21.188Z,9.4
2022-08-14T17:38:37.439Z,9.9
2022-08-14T17:39:53.689Z,10.7
2022-08-14T17:41:09.925Z,10.3
2022-08-14T17:42:26.165Z,9.7
2022-08-14T17:43:42.396Z,9.3
2022-08-14T17:44:58.653Z,9.9
2022-08-14T17:46:14.891Z,9.9
2022-08-14T17:48:47.369Z,9.2
2022-08-14T17:50:02.627Z,10.1
2022-08-14T17:51:18.869Z,9.7
2022-08-14T17:52:35.095Z,9.9
2022-08-14T17:53:51.354Z,10.5
2022-08-14T17:55:07.578Z,9.6
2022-08-14T17:56:23.831Z,11
2022-08-14T17:57:40.068Z,9.4
2022-08-14T17:58:56.312Z,8.9
2022-08-14T18:00:12.549Z,9.2
2022-08-14T18:01:28.792Z,10.2
2022-08-14T18:02:45.030Z,10.4
2022-08-14T18:04:01.261Z,10.2
2022-08-14T18:05:17.498Z,9.8